Carter, MT (59420)

4:20 AM MST on January 26, 2015 (GMT -0700)
North Fort Benton | Change Station
CLOSE
Current Station
Personal Weather Station
Location: Fort Benton, MT
Elevation: 2641 ft
Nearby Weather Stations

Elev 2641 ft 47.83 °N, 110.66 °W | Updated 2 seconds ago

Clear
Clear
56.1 °F
Feels Like 56.1 °F
N
7.6
Wind Variable Wind from SW
Gusts 11.4 mph

Today
High -- | Low -- °F
--% Chance of Precip.
Yesterday
High -- | Low -- °F
Precip. -- in
7:58 AM 5:15 PM
Waxing Crescent, 42% visible
Pressure 30.08 in
Visibility 10.0 miles
Clouds Clear
Dew Point 30 °F
Humidity 36%
Rainfall 0.00 in
Snow Depth Not available.
UV 0 out of 12
Pollen 4.00 out of 12
Air Quality Not available.
Flu Activity Not available.
METAR KGFA 261056Z AUTO 23020G23KT 10SM CLR 11/M02 A3005 RMK AO2 SLP184 T01091025

More Conditions Fewer Conditions

Pressure 30.08 in
Visibility 10.0 miles
Clouds Clear
Dew Point 30 °F
Humidity 36%
Rainfall 0.00 in
Snow Depth Not available.
UV 0 out of 12
Pollen 4.00 out of 12
Air Quality Not available.
Flu Activity Not available.
METAR KGFA 261056Z AUTO 23020G23KT 10SM CLR 11/M02 A3005 RMK AO2 SLP184 T01091025

More Conditions Fewer Conditions

10-Day Weather Forecast

Almanac

Astronomy

Jan. 26, 2015 Rise Set
Actual Time
Civil Twilight
Nautical Twilight
Astronomical Twilight
Moon
Length of Visible Light
Length of Day
Tomorrow will be .
, % of the Moon is Illuminated

Today's Extremes

State Highs State Lows

Community

WunderPhotos

Upload Photos

1,790,172 photos uploaded!

WunderBlogs® & News

Nearby

Air Quality

  Air Quality AQ Index Pollutant
Not available.

Snow Depth

Station Depth Elevation

Earthquake Activity

City Distance Mag. Time & Date
Minimum magnitude displayed is 2.5.

Coastal Water Temperatures

Place Temperature

Nearby Weather Stations